• Join FlightAware (Why Join?)
  • Login
  • US Flag 
02:38AM EDT


 

Airport Tracker/Info


-or-


 

Live Flight TrackerFlight Track Log ✈ EJA396 ✈ 16-Jun-2013 ✈ KMSP - KBTV

Flight Track Log - Related Links

Times and Time Zones

All times are in EDT time to prevent confusion due to time zone crossing. See the EJA396 flight status page for this flight to view local times or setup timezone preferences in your user account.

Time Position Orientation Groundspeed Altitude Reporting Facility
EDT Latitude Longitude Course Direction KTS MPH feet Rate Location/Type
08:02PM 44.9167 -93.2333 359° North 190 219 2,700  Level Minneapolis TRACON
08:02PM 44.9456 -93.2339 359° North 223 257 4,600 2,760 Climbing Minneapolis Center
08:03PM 45.0131 -93.2325 North 238 274 7,200 2,640 Climbing Minneapolis Center
08:04PM 45.0856 -93.2153 10° North 262 302 10,100 3,000 Climbing Minneapolis Center
08:05PM 45.1358 -93.1181 54° Northeast 333 383 13,400 3,240 Climbing Minneapolis Center
08:06PM 45.1692 -92.9864 70° East 353 406 16,800 3,240 Climbing Minneapolis Center
08:08PM 45.2000 -92.8603 71° East 341 392 20,100 2,940 Climbing Minneapolis Center
08:09PM 45.2403 -92.6992 70° East 360 414 22,900 2,400 Climbing Minneapolis Center
08:10PM 45.2675 -92.5464 76° East 394 453 25,100 2,100 Climbing Minneapolis Center
08:11PM 45.2761 -92.3850 86° East 408 470 27,300 2,040 Climbing Minneapolis Center
08:12PM 45.2661 -92.2242 95° East 408 470 29,400 1,800 Climbing Minneapolis Center
08:13PM 45.2575 -92.0597 94° East 417 480 31,000 1,380 Climbing Minneapolis Center
08:14PM 45.2469 -91.8842 95° East 443 510 32,600 840 Climbing Minneapolis Center
08:15PM 45.2333 -91.6192 94° East 490 564 33,000 180 Climbing Minneapolis Center
08:16PM 45.2197 -91.4128 95° East 517 595 33,000  Level Minneapolis Center
08:17PM 45.2086 -91.2267 95° East 529 609 33,000 540 Level Minneapolis Center
08:18PM 45.1928 -90.9822 95° East 525 604 34,200 1,200 Climbing Minneapolis Center
08:19PM 45.1806 -90.7842 95° East 512 589 35,500 1,200 Climbing Minneapolis Center
08:20PM 45.1678 -90.5831 95° East 514 592 36,800 720 Climbing Minneapolis Center
08:21PM 45.1539 -90.3833 96° East 513 590 37,000 60 Climbing Minneapolis Center
08:22PM 45.1400 -90.1847 96° East 511 588 37,000 300 Level Minneapolis Center
08:23PM 45.1253 -89.9858 96° East 511 588 37,700 1,080 Climbing Minneapolis Center
08:24PM 45.1083 -89.7536 96° East 502 578 39,300 1,380 Climbing Minneapolis Center
08:25PM 45.0944 -89.5672 96° East 488 562 40,600 780 Climbing Minneapolis Center
08:26PM 45.0800 -89.3833 96° East 478 550 41,000 180 Climbing Minneapolis Center
08:27PM 45.0653 -89.1942 96° East 485 558 41,000  Level Minneapolis Center
08:28PM 45.0469 -88.9728 97° East 503 579 41,000  Level Minneapolis Center
08:29PM 45.0300 -88.7700 97° East 514 592 41,000  Level Minneapolis Center
08:31PM 45.0131 -88.5664 97° East 519 597 41,000  Level Minneapolis Center
08:32PM 44.9928 -88.3333 97° East 514 592 41,000  Level Minneapolis Center
08:33PM 44.9733 -88.1153 97° East 510 587 41,000  Level Minneapolis Center
08:34PM 44.9558 -87.9186 97° East 507 583 41,000  Level Minneapolis Center
08:35PM 44.9381 -87.7203 97° East 509 586 41,000  Level Minneapolis Center
08:36PM 44.9183 -87.5228 98° East 511 588 41,000  Level Minneapolis Center
08:37PM 44.8947 -87.2853 98° East 510 587 41,000  Level Minneapolis Center
08:38PM 44.8756 -87.0881 98° East 510 587 41,000  Level Minneapolis Center
08:39PM 44.8561 -86.8900 98° East 511 588 41,000  Level Minneapolis Center
08:40PM 44.8378 -86.7092 98° East 511 588 41,000  Level Minneapolis Center
08:41PM 44.8133 -86.4714 98° East 512 589 41,000  Level Minneapolis Center
08:42PM 44.7928 -86.2758 98° East 508 585 41,000  Level Minneapolis Center
08:43PM 44.7719 -86.0786 98° East 509 586 41,000  Level Minneapolis Center
08:44PM 44.7506 -85.8825 99° East 508 585 41,000  Level Minneapolis Center
08:45PM 44.7294 -85.6872 99° East 507 583 41,000  Level Minneapolis Center
08:46PM 44.7039 -85.4583 99° East 506 582 41,000  Level Minneapolis Center
08:47PM 44.6817 -85.2628 99° East 508 585 41,000  Level Minneapolis Center
08:48PM 44.6589 -85.0681 99° East 507 583 41,000  Level Minneapolis Center
08:49PM 44.6364 -84.8731 99° East 507 583 41,000  Level Minneapolis Center
08:50PM 44.6125 -84.6792 100° East 506 582 41,000  Level Minneapolis Center
08:51PM 44.5892 -84.4844 99° East 508 585 41,000  Level Minneapolis Center
08:52PM 44.5603 -84.2508 100° East 508 585 41,000  Level Minneapolis Center
08:53PM 44.5372 -84.0581 99° East 505 581 41,000  Level Minneapolis Center
08:54PM 44.5111 -83.8644 101° East 506 582 41,000  Level Minneapolis Center
08:55PM 44.4875 -83.6706 100° East 507 583 41,000  Level Minneapolis Center
08:56PM 44.4631 -83.4753 100° East 509 586 41,000  Level Minneapolis Center
08:58PM 44.4453 -83.2781 97° East 512 589 41,000  Level Minneapolis Center
08:59PM 44.4400 -83.0397 92° East 513 590 41,000  Level Minneapolis Center
09:00PM 44.4331 -82.8436 93° East 508 585 41,000  Level Minneapolis Center
09:01PM 44.4258 -82.6469 93° East 507 583 41,000  Level Minneapolis Center
09:02PM 44.4192 -82.4525 93° East 504 580 41,000  Level Minneapolis Center
09:03PM 44.3833 -82.2167 102° East 500 575 41,000  Level Toronto Center
09:04PM 44.3833 -82.0333 90° East 510 587 41,000  Level Toronto Center
09:05PM 44.3833 -81.8333 90° East 500 575 41,000  Level Toronto Center
09:06PM 44.3667 -81.6333 97° East 510 587 41,000  Level Toronto Center
09:07PM 44.3500 -81.4333 97° East 510 587 41,000  Level Toronto Center
09:08PM 44.3333 -81.2333 97° East 500 575 41,000  Level Toronto Center
09:09PM 44.3000 -81.0500 104° East 510 587 41,000  Level Toronto Center
09:10PM 44.2667 -80.8500 103° East 510 587 41,000  Level Toronto Center
09:11PM 44.2500 -80.6500 97° East 510 587 41,000  Level Toronto Center
09:12PM 44.2167 -80.4667 104° East 510 587 41,000  Level Toronto Center
09:13PM 44.1833 -80.2833 104° East 510 587 41,000  Level Toronto Center
09:14PM 44.1500 -80.0667 102° East 510 587 41,000  Level Toronto Center
09:15PM 44.1167 -79.8833 104° East 510 587 41,000  Level Toronto Center
09:16PM 44.1167 -79.7000 90° East 510 587 41,000  Level Toronto Center
09:17PM 44.1333 -79.5000 83° East 510 587 41,000  Level Toronto Center
09:18PM 44.1500 -79.3000 83° East 510 587 41,000  Level Toronto Center
09:19PM 44.1667 -79.1167 83° East 510 587 41,000  Level Toronto Center
09:20PM 44.1833 -78.9167 83° East 510 587 41,000  Level Toronto Center
09:21PM 44.2000 -78.7333 83° East 490 564 41,000  Level Toronto Center
09:22PM 44.2167 -78.5167 84° East 490 564 41,000  Level Toronto Center
09:23PM 44.2000 -78.3333 97° East 500 575 41,000  Level Toronto Center
09:24PM 44.2333 -78.1500 76° East 510 587 41,000  Level Toronto Center
09:25PM 44.2333 -77.9333 90° East 510 587 41,000  Level Toronto Center
09:26PM 44.2500 -77.7500 83° East 510 587 41,000  Level Toronto Center
09:27PM 44.2667 -77.5333 84° East 510 587 41,000  Level Toronto Center
09:28PM 44.2667 -77.3500 90° East 510 587 41,000  Level Toronto Center
09:29PM 44.2833 -77.1333 84° East 520 598 41,000  Level Toronto Center
09:30PM 44.3000 -76.9333 83° East 520 598 41,000  Level Toronto Center
09:31PM 44.3167 -76.7500 83° East 520 598 41,000  Level Toronto Center
09:32PM 44.3333 -76.5333 84° East 520 598 41,000  Level Montreal Center
09:33PM 44.3333 -76.3500 90° East 520 598 41,000  Level Montreal Center
09:34PM 44.3500 -76.1333 84° East 520 598 41,000 -180 Level Montreal Center
09:35PM 44.3711 -75.9894 78° East 520 598 40,700 -900 Descending Boston Center
09:36PM 44.3836 -75.7867 85° East 520 598 39,400 -1,380 Descending Boston Center
09:37PM 44.3914 -75.5836 87° East 515 593 38,000 -1,800 Descending Boston Center
09:38PM 44.3989 -75.3808 87° East 515 593 35,900 -2,220 Descending Boston Center
09:39PM 44.4061 -75.1717 87° East 526 605 33,600 -2,340 Descending Boston Center
09:40PM 44.4150 -74.9658 86° East 531 611 31,300 -2,340 Descending Boston Center
09:41PM 44.4214 -74.7597 87° East 531 611 29,000 -2,400 Descending Boston Center
09:42PM 44.4294 -74.5536 87° East 531 611 26,600 -2,400 Descending Boston Center
09:43PM 44.4369 -74.3561 87° East 525 604 24,200 -2,640 Descending Boston Center
09:44PM 44.4442 -74.1761 87° East 495 570 21,400 -2,880 Descending Boston Center
09:45PM 44.4486 -74.0017 88° East 470 541 18,500 -2,940 Descending Boston Center
09:46PM 44.4528 -73.8361 88° East 440 506 15,500 -2,940 Descending Boston Center
09:47PM 44.4631 -73.6764 85° East 420 483 12,700 -2,880 Descending Boston Center
09:48PM 44.4875 -73.5372 76° East 392 451 9,900 -2,940 Descending Boston Center
09:49PM 44.5072 -73.4269 76° East 340 391 6,900 -3,120 Descending Boston Center
09:50PM 44.5247 -73.3222 77° East 260 299 3,700 -2,400 Descending Boston Center
09:51PM 44.5272 -73.2467 87° East 213 245 2,100 -1,380 Descending Boston Center
09:52PM 44.5047 -73.2056 127° Southeast 142 163 1,000 -900 Descending Boston Center
09:53PM 44.4819 -73.1703 132° Southeast 125 144 400 -360 Descending Boston Center
09:54PM 44.4694 -73.1528 135° Southeast 108 124 300 -60 Descending Boston Center
09:55PM 44.4508 -73.1264 135° Southeast 75 86 300 8,460 Level Boston Center
09:56PM 44.4364 -73.1031 131° Southeast 75 86 19,000 9,300 Climbing Boston Center
09:57PM 44.4200 -73.0825 138° Southeast 75 86 19,000  Level Boston Center
09:58PM 44.4056 -73.0592 131° Southeast 75 86 19,000  Level Boston Center
09:59PM 44.4014 -73.0561 152° Southeast 75 86 19,000  Level Boston Center